Terminal Aerodrome Forecast
Issued by NWS Houston/Galveston TX

Home | Current Version | Previous Version | Text Only | Print | Product List | Glossary On
Versions: 1 2 3 4 5 6 7 8 9 10 11 12 13 14 15 16 17 18 19 20 21 22 23 24 25 26 27 28 29 30 31 32 33 34 35 36 37
000
FTUS44 KHGX 212150 AAD
TAFHOU
TAF AMD
KHOU 212150Z 2122/2218 30013KT P6SM -RA SCT008 OVC013
      TEMPO 2122/2124 2SM TSRA BKN005 OVC010CB
     FM220000 35009KT 4SM -SHRA BR VCTS OVC006CB
      TEMPO 2200/2203 2SM TSRA BKN005 OVC010CB
     FM220400 35006KT 3SM -RA BR OVC005
     FM221500 01006KT 2SM -DZ BR OVC004=

USA.gov is the U.S. government's official web portal to all federal, state and local government web resources and services.